Kaneohe Bay MCAS (Marion E. Carl Field) Airport Kaneohe US
ICAO: PHNG
IATA:
Category: Medium
Scheduled Services:

Elevation: 24 ft
TransAlt. 18000 ft.

Airport Communications:
APP/DEP:125
ATIS:28.45
CLNC DEL:29.47
CTAF:120.7
GND:38.28
PMSV METRO:34.46
PTD:30.72
TWR:120.7

PHNG Zoom In..

Runways:

(A) RW 04 length 7771 ft width 200 ft
---- / hdg 41

(B) RW 22 length 7771 ft width 200 ft
---- / hdg 221

Location; PHNG
Day. 26 / Time. 13.49 Zulu
* Altimeter: 30.04
* Temperature: 24° c. 75.2°f.
* Wind from: 080° Speed 05 kn.
Dewpoint: 20° c.
Visibility: 10 Statute Miles.
Clouds: Few 2400 ft.
Clouds: Broken 3400 ft.
Clouds: Overcast 6000 ft.

PHNG 261349Z AUTO 08005KT 10SM FEW024 BKN034 OVC060 24/20 A3004 RMK AO2 T02440200 $


Wind From 080°
Speed 05 kn.

 
 
jpsmedia.com for Web Design SOUNDCLOUD worldairports.se 2018   terms of use